sensor_id;sensor_type;location;lat;lon;timestamp;P1;durP1;ratioP1;P2;durP2;ratioP2
29814;SDS011;16708;50.426;7.664;2022-09-03T00:01:05;1.40;;;0.80;;
29814;SDS011;16708;50.426;7.664;2022-09-03T00:06:00;3.20;;;0.80;;
29814;SDS011;16708;50.426;7.664;2022-09-03T00:10:55;1.30;;;0.80;;
29814;SDS011;16708;50.426;7.664;2022-09-03T00:15:49;1.90;;;0.70;;
29814;SDS011;16708;50.426;7.664;2022-09-03T00:20:44;3.80;;;1.40;;
29814;SDS011;16708;50.426;7.664;2022-09-03T00:25:38;3.10;;;0.80;;
29814;SDS011;16708;50.426;7.664;2022-09-03T00:30:31;1.00;;;0.70;;
29814;SDS011;16708;50.426;7.664;2022-09-03T00:35:25;2.30;;;0.60;;
29814;SDS011;16708;50.426;7.664;2022-09-03T00:45:13;1.20;;;0.70;;
29814;SDS011;16708;50.426;7.664;2022-09-03T00:50:08;3.10;;;0.80;;
29814;SDS011;16708;50.426;7.664;2022-09-03T00:55:02;2.60;;;0.70;;
29814;SDS011;16708;50.426;7.664;2022-09-03T00:59:55;4.10;;;0.80;;
29814;SDS011;16708;50.426;7.664;2022-09-03T01:04:50;2.10;;;0.80;;
29814;SDS011;16708;50.426;7.664;2022-09-03T01:09:44;1.70;;;0.80;;
29814;SDS011;16708;50.426;7.664;2022-09-03T01:29:22;1.10;;;0.70;;
29814;SDS011;16708;50.426;7.664;2022-09-03T01:34:17;0.90;;;0.70;;
29814;SDS011;16708;50.426;7.664;2022-09-03T01:39:11;2.30;;;0.70;;
29814;SDS011;16708;50.426;7.664;2022-09-03T01:49:00;2.30;;;0.90;;
29814;SDS011;16708;50.426;7.664;2022-09-03T01:58:49;2.10;;;1.00;;
29814;SDS011;16708;50.426;7.664;2022-09-03T02:03:44;1.00;;;0.70;;
29814;SDS011;16708;50.426;7.664;2022-09-03T02:08:39;2.30;;;0.70;;
29814;SDS011;16708;50.426;7.664;2022-09-03T02:13:33;1.40;;;0.70;;
29814;SDS011;16708;50.426;7.664;2022-09-03T02:18:28;1.00;;;0.70;;
29814;SDS011;16708;50.426;7.664;2022-09-03T02:28:16;0.80;;;0.70;;
29814;SDS011;16708;50.426;7.664;2022-09-03T02:33:10;2.30;;;0.80;;
29814;SDS011;16708;50.426;7.664;2022-09-03T02:38:04;2.30;;;0.90;;
29814;SDS011;16708;50.426;7.664;2022-09-03T02:42:59;1.20;;;0.70;;
29814;SDS011;16708;50.426;7.664;2022-09-03T02:47:52;2.30;;;0.70;;
29814;SDS011;16708;50.426;7.664;2022-09-03T02:52:47;1.40;;;0.90;;
29814;SDS011;16708;50.426;7.664;2022-09-03T02:57:41;4.10;;;0.80;;
29814;SDS011;16708;50.426;7.664;2022-09-03T03:02:36;1.20;;;0.80;;
29814;SDS011;16708;50.426;7.664;2022-09-03T03:07:30;1.10;;;0.60;;
29814;SDS011;16708;50.426;7.664;2022-09-03T03:12:25;0.90;;;0.70;;
29814;SDS011;16708;50.426;7.664;2022-09-03T03:17:19;3.80;;;0.80;;
29814;SDS011;16708;50.426;7.664;2022-09-03T03:22:14;1.10;;;0.70;;
29814;SDS011;16708;50.426;7.664;2022-09-03T03:27:09;1.40;;;0.80;;
29814;SDS011;16708;50.426;7.664;2022-09-03T03:32:03;3.60;;;0.70;;
29814;SDS011;16708;50.426;7.664;2022-09-03T03:36:58;2.10;;;0.90;;
29814;SDS011;16708;50.426;7.664;2022-09-03T03:41:52;2.70;;;0.90;;
29814;SDS011;16708;50.426;7.664;2022-09-03T03:46:46;1.40;;;0.90;;
29814;SDS011;16708;50.426;7.664;2022-09-03T03:51:41;1.10;;;0.70;;
29814;SDS011;16708;50.426;7.664;2022-09-03T03:56:35;1.90;;;0.70;;
29814;SDS011;16708;50.426;7.664;2022-09-03T04:01:29;1.40;;;0.90;;
29814;SDS011;16708;50.426;7.664;2022-09-03T04:06:23;2.80;;;1.30;;
29814;SDS011;16708;50.426;7.664;2022-09-03T04:11:18;2.90;;;0.80;;
29814;SDS011;16708;50.426;7.664;2022-09-03T04:16:12;2.40;;;0.80;;
29814;SDS011;16708;50.426;7.664;2022-09-03T04:21:06;1.30;;;0.80;;
29814;SDS011;16708;50.426;7.664;2022-09-03T04:26:01;1.20;;;0.80;;
29814;SDS011;16708;50.426;7.664;2022-09-03T04:35:50;1.70;;;0.80;;
29814;SDS011;16708;50.426;7.664;2022-09-03T04:40:45;1.70;;;0.90;;
29814;SDS011;16708;50.426;7.664;2022-09-03T04:55:29;1.90;;;0.80;;
29814;SDS011;16708;50.426;7.664;2022-09-03T05:00:24;2.20;;;0.90;;
29814;SDS011;16708;50.426;7.664;2022-09-03T05:05:18;1.40;;;0.80;;
29814;SDS011;16708;50.426;7.664;2022-09-03T05:10:12;3.10;;;1.20;;
29814;SDS011;16708;50.426;7.664;2022-09-03T05:15:07;2.90;;;0.90;;
29814;SDS011;16708;50.426;7.664;2022-09-03T05:20:01;2.10;;;1.00;;
29814;SDS011;16708;50.426;7.664;2022-09-03T05:29:51;1.40;;;0.70;;
29814;SDS011;16708;50.426;7.664;2022-09-03T05:34:45;1.40;;;0.90;;
29814;SDS011;16708;50.426;7.664;2022-09-03T05:39:40;1.40;;;0.90;;
29814;SDS011;16708;50.426;7.664;2022-09-03T05:44:35;2.00;;;0.90;;
29814;SDS011;16708;50.426;7.664;2022-09-03T05:49:30;1.50;;;0.90;;
29814;SDS011;16708;50.426;7.664;2022-09-03T05:54:25;1.60;;;0.90;;
29814;SDS011;16708;50.426;7.664;2022-09-03T05:59:19;2.60;;;0.90;;
29814;SDS011;16708;50.426;7.664;2022-09-03T06:04:13;3.60;;;0.90;;
29814;SDS011;16708;50.426;7.664;2022-09-03T06:14:01;2.30;;;0.80;;
29814;SDS011;16708;50.426;7.664;2022-09-03T06:18:56;3.30;;;0.70;;
29814;SDS011;16708;50.426;7.664;2022-09-03T06:23:51;2.60;;;0.90;;
29814;SDS011;16708;50.426;7.664;2022-09-03T06:28:46;3.20;;;0.80;;
29814;SDS011;16708;50.426;7.664;2022-09-03T06:33:40;2.00;;;0.90;;
29814;SDS011;16708;50.426;7.664;2022-09-03T06:38:34;2.30;;;1.00;;
29814;SDS011;16708;50.426;7.664;2022-09-03T06:48:24;1.80;;;0.90;;
29814;SDS011;16708;50.426;7.664;2022-09-03T06:53:20;2.40;;;0.90;;
29814;SDS011;16708;50.426;7.664;2022-09-03T06:58:12;3.20;;;1.10;;
29814;SDS011;16708;50.426;7.664;2022-09-03T07:03:07;3.50;;;1.10;;
29814;SDS011;16708;50.426;7.664;2022-09-03T07:12:56;3.40;;;1.10;;
29814;SDS011;16708;50.426;7.664;2022-09-03T07:17:50;3.40;;;1.00;;
29814;SDS011;16708;50.426;7.664;2022-09-03T07:27:40;2.40;;;0.90;;
29814;SDS011;16708;50.426;7.664;2022-09-03T07:32:35;2.70;;;0.90;;
29814;SDS011;16708;50.426;7.664;2022-09-03T07:37:29;1.80;;;1.00;;
29814;SDS011;16708;50.426;7.664;2022-09-03T07:42:24;4.70;;;1.00;;
29814;SDS011;16708;50.426;7.664;2022-09-03T07:47:19;2.00;;;1.00;;
29814;SDS011;16708;50.426;7.664;2022-09-03T07:52:14;2.60;;;1.30;;
29814;SDS011;16708;50.426;7.664;2022-09-03T07:57:07;1.30;;;0.90;;
29814;SDS011;16708;50.426;7.664;2022-09-03T08:02:01;2.30;;;1.10;;
29814;SDS011;16708;50.426;7.664;2022-09-03T08:06:56;1.20;;;1.00;;
29814;SDS011;16708;50.426;7.664;2022-09-03T08:21:40;3.40;;;1.20;;
29814;SDS011;16708;50.426;7.664;2022-09-03T08:26:34;5.40;;;1.20;;
29814;SDS011;16708;50.426;7.664;2022-09-03T08:31:29;2.20;;;1.10;;
29814;SDS011;16708;50.426;7.664;2022-09-03T08:36:23;1.70;;;1.20;;
29814;SDS011;16708;50.426;7.664;2022-09-03T08:41:17;2.40;;;1.00;;
29814;SDS011;16708;50.426;7.664;2022-09-03T08:46:11;2.70;;;1.20;;
29814;SDS011;16708;50.426;7.664;2022-09-03T09:00:54;2.30;;;1.20;;
29814;SDS011;16708;50.426;7.664;2022-09-03T09:05:49;1.40;;;1.20;;
29814;SDS011;16708;50.426;7.664;2022-09-03T09:10:43;1.80;;;1.30;;
29814;SDS011;16708;50.426;7.664;2022-09-03T09:20:32;6.20;;;1.40;;
29814;SDS011;16708;50.426;7.664;2022-09-03T09:25:27;2.10;;;1.20;;
29814;SDS011;16708;50.426;7.664;2022-09-03T09:30:21;3.10;;;1.40;;
29814;SDS011;16708;50.426;7.664;2022-09-03T09:35:15;2.20;;;1.40;;
29814;SDS011;16708;50.426;7.664;2022-09-03T09:45:03;2.20;;;1.30;;
29814;SDS011;16708;50.426;7.664;2022-09-03T09:49:57;2.00;;;1.20;;
29814;SDS011;16708;50.426;7.664;2022-09-03T09:59:47;2.80;;;1.40;;
29814;SDS011;16708;50.426;7.664;2022-09-03T10:09:36;2.30;;;1.30;;
29814;SDS011;16708;50.426;7.664;2022-09-03T10:19:25;4.20;;;1.40;;
29814;SDS011;16708;50.426;7.664;2022-09-03T10:24:19;2.20;;;1.60;;
29814;SDS011;16708;50.426;7.664;2022-09-03T10:29:14;4.00;;;1.50;;
29814;SDS011;16708;50.426;7.664;2022-09-03T10:34:09;2.70;;;1.30;;
29814;SDS011;16708;50.426;7.664;2022-09-03T10:39:04;2.40;;;1.30;;
29814;SDS011;16708;50.426;7.664;2022-09-03T10:43:58;2.00;;;1.20;;
29814;SDS011;16708;50.426;7.664;2022-09-03T10:48:53;1.90;;;1.40;;
29814;SDS011;16708;50.426;7.664;2022-09-03T10:58:42;2.90;;;1.50;;
29814;SDS011;16708;50.426;7.664;2022-09-03T11:03:37;2.10;;;1.30;;
29814;SDS011;16708;50.426;7.664;2022-09-03T11:13:26;3.10;;;1.30;;
29814;SDS011;16708;50.426;7.664;2022-09-03T11:18:21;2.50;;;1.40;;
29814;SDS011;16708;50.426;7.664;2022-09-03T11:23:16;2.40;;;1.40;;
29814;SDS011;16708;50.426;7.664;2022-09-03T11:28:11;2.10;;;1.40;;
29814;SDS011;16708;50.426;7.664;2022-09-03T11:33:04;2.10;;;1.40;;
29814;SDS011;16708;50.426;7.664;2022-09-03T11:37:59;2.90;;;1.60;;
29814;SDS011;16708;50.426;7.664;2022-09-03T11:42:54;3.30;;;1.60;;
29814;SDS011;16708;50.426;7.664;2022-09-03T11:47:49;2.30;;;1.60;;
29814;SDS011;16708;50.426;7.664;2022-09-03T12:12:27;2.70;;;1.60;;
29814;SDS011;16708;50.426;7.664;2022-09-03T12:17:22;2.40;;;2.00;;
29814;SDS011;16708;50.426;7.664;2022-09-03T12:27:13;4.00;;;1.60;;
29814;SDS011;16708;50.426;7.664;2022-09-03T12:41:55;1.70;;;1.40;;
29814;SDS011;16708;50.426;7.664;2022-09-03T12:46:50;2.40;;;1.40;;
29814;SDS011;16708;50.426;7.664;2022-09-03T12:56:36;2.30;;;1.50;;
29814;SDS011;16708;50.426;7.664;2022-09-03T13:01:29;1.90;;;1.20;;
29814;SDS011;16708;50.426;7.664;2022-09-03T13:11:18;1.40;;;1.20;;
29814;SDS011;16708;50.426;7.664;2022-09-03T13:26:01;2.80;;;1.50;;
29814;SDS011;16708;50.426;7.664;2022-09-03T13:30:51;1.50;;;1.40;;
29814;SDS011;16708;50.426;7.664;2022-09-03T13:35:45;3.60;;;1.20;;
29814;SDS011;16708;50.426;7.664;2022-09-03T13:40:40;4.50;;;2.30;;
29814;SDS011;16708;50.426;7.664;2022-09-03T13:45:37;1.70;;;1.40;;
29814;SDS011;16708;50.426;7.664;2022-09-03T13:55:26;1.40;;;1.30;;
29814;SDS011;16708;50.426;7.664;2022-09-03T14:00:22;2.40;;;1.50;;
29814;SDS011;16708;50.426;7.664;2022-09-03T14:05:18;2.60;;;1.60;;
29814;SDS011;16708;50.426;7.664;2022-09-03T14:10:13;1.70;;;1.50;;
29814;SDS011;16708;50.426;7.664;2022-09-03T14:15:07;1.50;;;1.40;;
29814;SDS011;16708;50.426;7.664;2022-09-03T14:20:00;1.40;;;1.30;;
29814;SDS011;16708;50.426;7.664;2022-09-03T14:24:53;3.60;;;1.40;;
29814;SDS011;16708;50.426;7.664;2022-09-03T14:39:36;1.80;;;1.70;;
29814;SDS011;16708;50.426;7.664;2022-09-03T14:49:24;2.50;;;1.70;;
29814;SDS011;16708;50.426;7.664;2022-09-03T14:59:14;2.30;;;1.70;;
29814;SDS011;16708;50.426;7.664;2022-09-03T15:09:03;3.00;;;1.70;;
29814;SDS011;16708;50.426;7.664;2022-09-03T15:13:56;2.80;;;1.70;;
29814;SDS011;16708;50.426;7.664;2022-09-03T15:33:31;2.60;;;1.70;;
29814;SDS011;16708;50.426;7.664;2022-09-03T15:38:25;3.80;;;1.70;;
29814;SDS011;16708;50.426;7.664;2022-09-03T15:43:19;3.00;;;1.60;;
29814;SDS011;16708;50.426;7.664;2022-09-03T15:48:13;3.10;;;1.90;;
29814;SDS011;16708;50.426;7.664;2022-09-03T15:58:01;7.00;;;3.40;;
29814;SDS011;16708;50.426;7.664;2022-09-03T16:02:56;6.10;;;3.70;;
29814;SDS011;16708;50.426;7.664;2022-09-03T16:07:50;10.40;;;3.90;;
29814;SDS011;16708;50.426;7.664;2022-09-03T16:12:44;7.30;;;3.60;;
29814;SDS011;16708;50.426;7.664;2022-09-03T16:17:38;7.60;;;3.90;;
29814;SDS011;16708;50.426;7.664;2022-09-03T16:22:32;5.90;;;3.00;;
29814;SDS011;16708;50.426;7.664;2022-09-03T16:37:15;5.50;;;2.30;;
29814;SDS011;16708;50.426;7.664;2022-09-03T16:51:59;5.30;;;3.40;;
29814;SDS011;16708;50.426;7.664;2022-09-03T16:56:54;5.30;;;2.80;;
29814;SDS011;16708;50.426;7.664;2022-09-03T17:16:32;8.20;;;4.00;;
29814;SDS011;16708;50.426;7.664;2022-09-03T17:21:27;7.80;;;3.70;;
29814;SDS011;16708;50.426;7.664;2022-09-03T18:05:40;7.00;;;3.20;;
29814;SDS011;16708;50.426;7.664;2022-09-03T18:10:35;4.40;;;3.10;;
29814;SDS011;16708;50.426;7.664;2022-09-03T18:15:30;4.90;;;3.50;;
29814;SDS011;16708;50.426;7.664;2022-09-03T18:20:24;3.40;;;2.30;;
29814;SDS011;16708;50.426;7.664;2022-09-03T18:25:19;4.00;;;2.80;;
29814;SDS011;16708;50.426;7.664;2022-09-03T18:30:13;4.20;;;2.80;;
29814;SDS011;16708;50.426;7.664;2022-09-03T18:35:08;4.30;;;3.10;;
29814;SDS011;16708;50.426;7.664;2022-09-03T18:44:57;5.00;;;3.80;;
29814;SDS011;16708;50.426;7.664;2022-09-03T18:49:52;4.00;;;3.30;;
29814;SDS011;16708;50.426;7.664;2022-09-03T18:54:46;3.80;;;3.00;;
29814;SDS011;16708;50.426;7.664;2022-09-03T18:59:41;6.20;;;4.00;;
29814;SDS011;16708;50.426;7.664;2022-09-03T19:04:36;7.00;;;4.70;;
29814;SDS011;16708;50.426;7.664;2022-09-03T19:09:30;7.10;;;4.90;;
29814;SDS011;16708;50.426;7.664;2022-09-03T19:14:24;9.20;;;5.70;;
29814;SDS011;16708;50.426;7.664;2022-09-03T19:24:13;9.10;;;5.70;;
29814;SDS011;16708;50.426;7.664;2022-09-03T19:29:08;9.80;;;6.70;;
29814;SDS011;16708;50.426;7.664;2022-09-03T19:43:50;9.50;;;6.70;;
29814;SDS011;16708;50.426;7.664;2022-09-03T19:48:44;9.50;;;6.60;;
29814;SDS011;16708;50.426;7.664;2022-09-03T19:53:39;8.50;;;6.50;;
29814;SDS011;16708;50.426;7.664;2022-09-03T19:58:33;8.60;;;6.60;;
29814;SDS011;16708;50.426;7.664;2022-09-03T20:03:28;9.90;;;7.30;;
29814;SDS011;16708;50.426;7.664;2022-09-03T20:08:22;8.10;;;6.00;;
29814;SDS011;16708;50.426;7.664;2022-09-03T20:28:00;8.60;;;6.50;;
29814;SDS011;16708;50.426;7.664;2022-09-03T20:32:55;9.30;;;7.10;;
29814;SDS011;16708;50.426;7.664;2022-09-03T20:42:43;9.30;;;7.00;;
29814;SDS011;16708;50.426;7.664;2022-09-03T20:47:36;11.30;;;7.60;;
29814;SDS011;16708;50.426;7.664;2022-09-03T20:52:31;8.80;;;5.90;;
29814;SDS011;16708;50.426;7.664;2022-09-03T20:57:26;9.40;;;5.60;;
29814;SDS011;16708;50.426;7.664;2022-09-03T21:02:21;7.10;;;5.70;;
29814;SDS011;16708;50.426;7.664;2022-09-03T21:07:15;7.20;;;5.30;;
29814;SDS011;16708;50.426;7.664;2022-09-03T21:12:10;7.50;;;5.10;;
29814;SDS011;16708;50.426;7.664;2022-09-03T21:21:59;4.30;;;3.40;;
29814;SDS011;16708;50.426;7.664;2022-09-03T21:26:54;9.10;;;5.70;;
29814;SDS011;16708;50.426;7.664;2022-09-03T21:31:49;7.90;;;6.20;;
29814;SDS011;16708;50.426;7.664;2022-09-03T21:36:44;8.10;;;6.20;;
29814;SDS011;16708;50.426;7.664;2022-09-03T21:41:39;8.40;;;6.10;;
29814;SDS011;16708;50.426;7.664;2022-09-03T21:46:33;7.90;;;5.80;;
29814;SDS011;16708;50.426;7.664;2022-09-03T21:51:28;7.20;;;4.40;;
29814;SDS011;16708;50.426;7.664;2022-09-03T22:01:16;6.00;;;4.60;;
29814;SDS011;16708;50.426;7.664;2022-09-03T22:06:09;9.90;;;7.50;;
29814;SDS011;16708;50.426;7.664;2022-09-03T22:11:01;9.30;;;7.50;;
29814;SDS011;16708;50.426;7.664;2022-09-03T22:15:56;8.00;;;6.40;;
29814;SDS011;16708;50.426;7.664;2022-09-03T22:20:51;11.00;;;6.40;;
29814;SDS011;16708;50.426;7.664;2022-09-03T22:25:45;10.80;;;7.90;;
29814;SDS011;16708;50.426;7.664;2022-09-03T22:35:35;8.90;;;6.80;;
29814;SDS011;16708;50.426;7.664;2022-09-03T22:45:24;10.70;;;8.10;;
29814;SDS011;16708;50.426;7.664;2022-09-03T22:55:13;10.60;;;7.10;;
29814;SDS011;16708;50.426;7.664;2022-09-03T23:00:08;12.60;;;7.30;;
29814;SDS011;16708;50.426;7.664;2022-09-03T23:05:03;12.80;;;8.00;;
29814;SDS011;16708;50.426;7.664;2022-09-03T23:09:58;12.20;;;7.50;;
29814;SDS011;16708;50.426;7.664;2022-09-03T23:14:52;10.30;;;7.30;;
29814;SDS011;16708;50.426;7.664;2022-09-03T23:19:47;11.30;;;7.60;;
29814;SDS011;16708;50.426;7.664;2022-09-03T23:24:42;8.80;;;6.50;;
29814;SDS011;16708;50.426;7.664;2022-09-03T23:34:31;8.90;;;6.70;;
29814;SDS011;16708;50.426;7.664;2022-09-03T23:49:13;7.70;;;5.90;;
29814;SDS011;16708;50.426;7.664;2022-09-03T23:54:08;10.00;;;6.40;;
29814;SDS011;16708;50.426;7.664;2022-09-03T23:59:03;7.60;;;5.50;;
